Badger Spring Valley, Nevada Weather observations

Data are for 10 minute period ending at time listed.
 Day   Time   Solar   Ave.   Ave.  Ave.  Vector  Max.   Baro.   Total    
  of    of     Rad.   Air    Rel.  Wind   Wind   Wind  Press.  Precip.   
Year   Day            Temp.  Hum.  Speed  Dir.   Gust                    
2016   (PST)  Kw/m2    F      %     mph   deg.    mph    mb.     in.     
-------------------------------------------------------------------------
 340   11:20   0.62   52.2    13   10.3   296    19.3   826.5    0.00 
 340   11:30   0.62   52.8    13    8.4   296    17.0   826.4    0.00 
 340   11:40   0.62   52.9    12   11.0   299    15.6   826.3    0.00 
 340   11:50   0.61   53.0    12   10.4   290    16.5   826.2    0.00 
 340   12:00   0.61   53.1    12    8.6   282    14.8   826.1    0.00 
 340   12:10   0.60   52.8    11    9.3   301    14.2   825.9    0.00 
 340   12:20   0.60   53.6    11    6.2   296    13.2   825.9    0.00 
 340   12:30   0.56   53.6    10    7.3   274    13.0   825.8    0.00 
 340   12:40   0.53   53.3    10    6.6   318    15.1   825.7    0.00 
 340   12:50   0.54   53.2    10    7.7   289    14.0   825.6    0.00 
 340   13:00   0.53   53.7    10    6.2   284    18.6   825.5    0.00 
 340   13:10   0.47   53.3     9   10.1   281    16.8   825.6    0.00 
 340   13:20   0.50   53.0     8   10.7   271    16.7   825.5    0.00 
 340   13:30   0.50   53.5     8   11.7   269    17.8   825.3    0.00 
 340   13:40   0.48   53.4     7    9.7   281    16.3   825.3    0.00 
 340   13:50   0.55   54.0     7   10.0   292    17.8   825.3    0.00 
 340   14:00   0.56   53.5     8   12.8   305    20.5   825.2    0.00 
 340   14:10   0.45   53.3     8   12.1   307    19.7   825.2    0.00 
 340   14:20   0.40   53.2     8   10.4   286    15.4   825.3    0.00 
 340   14:30   0.30   52.9     9    8.4   306    15.3   825.3    0.00 
 340   14:40   0.19   52.3    10    6.5   288    12.4   825.3    0.00 
 340   14:50   0.14   51.8    10    7.3   284    10.8   825.3    0.00 
 340   15:00   0.13   51.2    10    7.4   295    11.5   825.2    0.00 
 340   15:10   0.12   51.0    10    6.1   282     8.6   825.2    0.00 
 340   15:20   0.12   50.9    11    3.9   264     6.4   825.3    0.00 
 340   15:30   0.09   51.0    11    5.7   229     9.7   825.2    0.00 
 340   15:40   0.08   50.3    11    5.5   226     9.3   825.1    0.00 
 340   15:50   0.05   49.9    11    6.1   225     9.0   825.1    0.00 
 340   16:00   0.03   49.3    11    4.6   222     7.7   825.0    0.00 
 340   16:10   0.02   48.6    12    5.8   219     9.5   825.1    0.00 
 340   16:20   0.01   48.4    12    6.4   225     9.2   825.0    0.00 
 340   16:30   0.00   48.4    11    8.0   232    11.5   825.1    0.00 
 340   16:40   0.00   48.1    11    6.0   248     9.9   825.1    0.00 
 340   16:50   0.00   47.4    11    7.4   276    11.3   825.2    0.00 
 340   17:00   0.00   45.1    13    7.7   282    13.5   825.2    0.00 
 340   17:10   0.00   46.6    11    8.6   281    13.2   825.3    0.00 
 340   17:20   0.00   45.0    12    7.8   298    11.0   825.2    0.00 
 340   17:30   0.00   43.0    13    8.2   295     9.9   825.3    0.00 
 340   17:40   0.00   42.7    13    7.9   302    10.2   825.3    0.00 
 340   17:50   0.00   42.4    13    7.3   301     9.7   825.2    0.00 
 340   18:00   0.00   41.5    14    8.3   300    11.2   825.1    0.00 
 340   18:10   0.00   41.8    13   10.0   298    12.3   825.0    0.00 
 340   18:20   0.00   44.2    10   11.0   311    15.1   824.9    0.00 
 340   18:30   0.00   45.9     8   10.7   303    16.7   824.8    0.00 
 340   18:40   0.00   47.5     6   15.2   317    21.0   824.7    0.00 
 340   18:50   0.00   48.4     6   13.0   308    20.6   824.8    0.00 
 340   19:00   0.00   47.9     6    8.2   248    16.5   825.0    0.00 
 340   19:10   0.00   46.0     8    4.5   234     7.4   825.1    0.00 
 340   19:20   0.00   45.1     9    5.8   276     9.0   825.1    0.00 
 340   19:30   0.00   44.0    10    7.0   276    10.8   825.1    0.00 
 340   19:40   0.00   42.4    11    5.5   283     8.0   825.1    0.00 
 340   19:50   0.00   41.1    11    6.0   286     9.9   825.3    0.00 
 340   20:00   0.00   41.9    10    6.2   266     9.9   825.3    0.00 
 340   20:10   0.00   43.6    10    5.3   251     7.7   825.2    0.00 
 340   20:20   0.00   43.2    10    6.1   260     9.0   825.1    0.00 
 340   20:30   0.00   43.2    10    5.6   276     9.6   825.1    0.00 
 340   20:40   0.00   40.8    12    5.4   300     6.9   825.1    0.00 
 340   20:50   0.00   40.7    12    5.3   275     7.6   825.0    0.00 
 340   21:00   0.00   43.4    11    5.0   251     9.3   824.9    0.00 
 340   21:10   0.00   44.2    11    6.0   238    13.6   825.0    0.00 
 340   21:20   0.00   44.4    11    6.9   244    11.5   825.0    0.00 
 340   21:30   0.00   44.3    11    6.9   252    11.0   824.9    0.00 
 340   21:40   0.00   44.2    11    7.5   256    11.2   824.9    0.00 
 340   21:50   0.00   43.5    12    5.5   257     8.5   824.9    0.00 
 340   22:00   0.00   42.8    12    4.5   257     7.7   825.0    0.00 
 340   22:10   0.00   40.7    13    2.3    66     3.9   825.0    0.00 
 340   22:20   0.00   37.7    15    2.5   344     4.1   825.0    0.00 
 340   22:30   0.00   37.7    15    0.3     6     1.7   824.9    0.00 
 340   22:40   0.00   38.1    15    0.7   326     1.7   824.8    0.00 
 340   22:50   0.00   37.4    16    1.9   342     3.7   824.9    0.00 
 340   23:00   0.00   36.5    17    2.6    19     4.0   824.8    0.00 
 340   23:10   0.00   37.8    15    2.0    26     3.1   824.7    0.00 
 340   23:20   0.00   37.9    14    2.3     2     5.1   824.7    0.00 
 340   23:30   0.00   37.0    15    2.1   339     3.1   824.7    0.00 
 340   23:40   0.00   36.9    15    1.5   338     3.0   824.5    0.00 
 340   23:50   0.00   35.9    16    3.6   320     5.7   824.6    0.00 
 341    0:00   0.00   35.4    18    3.5   322     4.7   824.5    0.00 
 341    0:10   0.00   36.2    18    4.0   308     7.4   824.4    0.00 
 341    0:20   0.00   35.7    19    7.3   303     9.3   824.4    0.00 
 341    0:30   0.00   36.8    18    9.5   294    10.8   824.3    0.00 
 341    0:40   0.00   38.1    16   10.2   290    11.8   824.2    0.00 
 341    0:50   0.00   38.5    16    9.0   284    10.3   824.1    0.00 
 341    1:00   0.00   38.7    17    7.9   277     9.4   823.9    0.00 
 341    1:10   0.00   38.6    18    8.1   284     9.0   823.8    0.00 
 341    1:20   0.00   39.2    17    8.2   281     9.3   823.9    0.00 
 341    1:30   0.00   39.5    17    8.5   282     9.6   823.8    0.00 
 341    1:40   0.00   38.9    18    1.9   151     7.3   823.9    0.00 
 341    1:50   0.00   39.0    18    3.3   240     6.3   823.8    0.00 
 341    2:00   0.00   39.0    19    3.0   249     5.0   823.8    0.00 
 341    2:10   0.00   38.8    18    1.9   221     3.5   823.8    0.00 
 341    2:20   0.00   38.7    18    0.1   231     1.2   823.8    0.00 
 341    2:30   0.00   38.1    20    1.3    53     3.4   823.8    0.00 
 341    2:40   0.00   37.5    22    1.1   121     2.6   823.7    0.00 
 341    2:50   0.00   37.6    24    1.1   159     2.7   823.6    0.00 
 341    3:00   0.00   37.3    24    1.0   327     2.4   823.6    0.00 
 341    3:10   0.00   37.5    25    1.2   347     3.8   823.6    0.00 
 341    3:20   0.00   37.8    24    1.3    34     2.4   823.6    0.00 
 341    3:30   0.00   39.2    23    1.3   120     3.6   823.5    0.00 
 341    3:40   0.00   39.7    22    1.3   112     4.2   823.4    0.00 
 341    3:50   0.00   40.2    24    1.7   244     7.7   823.4    0.00 
 341    4:00   0.00   40.2    26    5.1   287     9.3   823.3    0.00 
 341    4:10   0.00   39.6    28    4.5   288     8.0   823.2    0.00 
 341    4:20   0.00   37.5    31    2.5   275     5.3   823.2    0.00 
 341    4:30   0.00   37.1    31    0.8   299     2.9   823.2    0.00 
 341    4:40   0.00   37.1    30    1.1   145     3.0   823.1    0.00 
 341    4:50   0.00   37.0    29    0.6    86     1.7   823.1    0.00 
 341    5:00   0.00   38.0    29    1.1    89     2.7   823.1    0.00 
 341    5:10   0.00   37.9    29    1.4    71     2.6   823.1    0.00 
 341    5:20   0.00   37.0    30    2.5    49     3.8   823.0    0.00 
 341    5:30   0.00   36.8    29    1.6    20     3.1   823.0    0.00 
 341    5:40   0.00   37.4    29    1.6    11     3.1   823.0    0.00 
 341    5:50   0.00   37.5    29    1.0     2     2.1   823.0    0.00 
 341    6:00   0.00   36.5    31    1.7   345     3.4   823.0    0.00 
 341    6:10   0.00   36.6    31    1.0    30     2.1   823.0    0.00 
 341    6:20   0.00   36.8    30    2.1   348     4.0   823.0    0.00 
 341    6:30   0.00   35.1    32    1.5     8     2.1   823.0    0.00 
 341    6:40   0.00   34.8    32    2.0     4     2.9   823.0    0.00 
 341    6:50   0.01   33.5    35    3.5   339     5.4   823.1    0.00 
 341    7:00   0.01   32.5    37    4.6   310     5.8   823.1    0.00 
 341    7:10   0.01   34.4    34    4.2   304     6.1   823.1    0.00 
 341    7:20   0.04   35.5    33    3.9   298     6.3   823.3    0.00 
 341    7:30   0.08   38.4    31    3.4   292     7.1   823.3    0.00 
 341    7:40   0.07   38.8    30    2.2   216     5.6   823.5    0.00 
 341    7:50   0.17   41.0    27    2.2   150     4.0   823.6    0.00 
 341    8:00   0.19   42.4    24    2.0   146     3.3   823.7    0.00 
 341    8:10   0.22   43.2    23    1.2   100     3.7   823.7    0.00 
 341    8:20   0.25   44.5    23    1.1    96     3.3   823.6    0.00 
 341    8:30   0.28   44.7    23    3.4    23     7.0   823.5    0.00 
 341    8:40   0.31   46.5    21    4.0   277     8.2   823.4    0.00 
 341    8:50   0.34   47.7    20    5.8   272     9.5   823.4    0.00 
 341    9:00   0.37   47.8    20    5.3   255    19.8   823.5    0.00 
 341    9:10   0.40   47.7    20    5.8   251    11.0   823.5    0.00 
 341    9:20   0.42   47.3    20    7.0   257    16.1   823.5    0.00 
 341    9:30   0.45   47.2    20    8.9   267    13.7   823.6    0.00 
 341    9:40   0.47   47.2    20    7.0   263    11.8   823.6    0.00 
 341    9:50   0.49   47.5    20    7.4   240    14.5   823.5    0.00 
 341   10:00   0.51   47.7    20    6.4   264    12.1   823.4    0.00 
 341   10:10   0.53   48.1    19    7.4   236    13.9   823.2    0.00 
 341   10:20   0.55   47.4    20    8.4   224    13.5   823.1    0.00 
 341   10:30   0.56   47.1    20   10.9   224    16.4   823.0    0.00 
 341   10:40   0.57   46.9    20    9.2   221    15.5   822.9    0.00 
 341   10:50   0.58   47.1    20    8.2   235    15.3   822.7    0.00 
 341   11:00   0.59   47.6    20    8.0   229    15.2   822.6    0.00 
 341   11:10   0.60   47.5    20    9.5   217    16.7   822.4    0.00 

Return to Badger Spring Valley graphs page.


Western Regional Climate Center,wrcc@dri.edu